Coral Gables, Florida
Current Conditions -  °F | °C
As of 10:53 PM on Tuesday 27 Jan 2015 (Local Time) from KMIA Reporting Station
Clear Clear  
Wind Chill: 59°   Ceiling: Unl
Heat Index: 59°   Visibility: 10mi
Dew Point: 52°   Wind: 3mph
Humidity: 78%   Direction: 230°SW
Pressure: 30.06"   Gusts: NA
Location:  25.75°N, 80.26°W
Report Text: KMIA 280353Z 23003KT 10SM CLR 15/11 A3006 RMK AO2 SLP179 T01500111
Loading
Personal Weather Stations






























Interactive Weather Map New forecast layout! Learn more

10-Day Weather Forecast

Advertisements
Track Severe Weather on mobile